Time;durP1;ratioP1;P1;durP2;ratioP2;P2;SDS_P1;SDS_P2;PMS_P1;PMS_P2;Temp;Humidity;BMP_temperature;BMP_pressure;BME280_temperature;BME280_humidity;BME280_pressure;Samples;Min_cycle;Max_cycle;Signal;HPM_P1;HPM_P2
2023/06/13 00:03:39;;;;;;;1.20;1.10;;;;;;;23.40;36.20;100318.48;104333;1309;68425;-91
2023/06/13 00:39:45;;;;;;;1.60;1.30;;;;;;;23.34;36.31;100300.14;104185;1311;68436;-90
2023/06/13 00:45:29;;;;;;;1.50;1.10;;;;;;;23.34;36.16;100297.48;104205;1305;67977;-90
2023/06/13 01:17:57;;;;;;;2.80;1.30;;;;;;;23.31;36.19;100266.86;104327;1312;74710;-91
2023/06/13 01:28:51;;;;;;;1.70;1.20;;;;;;;23.28;36.08;100263.96;104201;1312;67850;-91
2023/06/13 01:59:03;;;;;;;3.50;1.60;;;;;;;23.24;36.11;100267.98;104382;1311;74843;-90
2023/06/13 02:28:57;;;;;;;2.60;1.60;;;;;;;23.20;36.28;100273.64;104137;1314;67858;-90
2023/06/13 02:59:37;;;;;;;2.60;1.90;;;;;;;23.17;37.32;100298.67;104227;1305;67776;-90
2023/06/13 03:02:04;;;;;;;3.20;2.10;;;;;;;23.16;37.34;100300.94;104105;1314;69034;-88
2023/06/13 03:07:05;;;;;;;3.30;2.10;;;;;;;23.11;37.19;100304.11;103598;1311;558732;-90
2023/06/13 03:09:34;;;;;;;4.60;2.10;;;;;;;23.10;37.31;100310.60;104072;1312;68309;-90
2023/06/13 03:12:06;;;;;;;3.00;2.10;;;;;;;23.08;37.24;100312.17;104313;1312;67967;-90
2023/06/13 03:14:36;;;;;;;3.90;2.30;;;;;;;23.05;37.47;100317.64;104185;1314;67849;-91
2023/06/13 03:22:21;;;;;;;7.50;1.80;;;;;;;22.95;37.63;100316.66;104194;1314;67981;-90
2023/06/13 03:46:34;;;;;;;4.30;2.00;;;;;;;22.68;37.27;100317.10;103730;1311;554294;-90
2023/06/13 03:49:07;;;;;;;2.80;1.80;;;;;;;22.55;37.22;100319.61;103703;1311;557923;-90
2023/06/13 03:54:21;;;;;;;2.90;1.90;;;;;;;22.32;37.32;100324.05;103649;1311;553586;-90
2023/06/13 03:56:49;;;;;;;2.50;1.70;;;;;;;22.25;37.46;100320.10;104374;1311;75462;-90
2023/06/13 03:59:28;;;;;;;3.30;2.00;;;;;;;22.17;37.37;100317.43;103729;1305;552851;-93
2023/06/13 05:14:03;;;;;;;7.30;2.30;;;;;;;22.69;38.22;100349.39;101282;1308;67977;-91
2023/06/13 05:36:31;;;;;;;5.40;2.80;;;;;;;22.45;38.51;100352.52;82024;1339;71493;-90
2023/06/13 05:39:23;;;;;;;4.00;2.70;;;;;;;22.49;38.69;100353.26;82694;1323;66778;-90
2023/06/13 05:41:56;;;;;;;5.00;3.00;;;;;;;22.52;38.86;100354.36;103883;1314;67200;-91
2023/06/13 05:47:26;;;;;;;7.00;2.90;;;;;;;22.56;38.86;100357.77;104189;1314;73780;-90
2023/06/13 05:49:52;;;;;;;5.60;2.60;;;;;;;22.60;38.80;100357.79;103865;1314;72512;-89
2023/06/13 06:38:27;;;;;;;4.50;2.40;;;;;;;22.40;39.23;100380.94;104053;1312;553957;-90
2023/06/13 06:47:05;;;;;;;6.60;2.40;;;;;;;22.22;39.31;100381.71;102449;1305;71633;-89
2023/06/13 06:55:36;;;;;;;5.30;2.50;;;;;;;22.02;39.74;100381.14;103562;1308;558304;-91
2023/06/13 06:58:10;;;;;;;7.80;3.00;;;;;;;22.01;39.95;100378.88;104134;1314;83153;-88
2023/06/13 07:00:36;;;;;;;9.90;3.70;;;;;;;22.02;39.74;100378.21;103913;1315;68001;-89
2023/06/13 07:03:07;;;;;;;8.00;3.10;;;;;;;22.05;40.11;100375.58;104019;1310;68638;-90
2023/06/13 07:05:43;;;;;;;7.20;2.70;;;;;;;22.07;40.09;100377.86;104258;1310;68035;-92
2023/06/13 07:08:22;;;;;;;5.20;2.50;;;;;;;22.12;40.03;100381.33;104062;1315;74342;-89
2023/06/13 07:10:48;;;;;;;4.80;2.40;;;;;;;22.14;39.99;100377.06;104119;1312;67851;-89
2023/06/13 07:39:49;;;;;;;6.80;3.20;;;;;;;22.01;40.44;100365.52;101933;1316;80175;-90
2023/06/13 08:08:02;;;;;;;10.50;2.90;;;;;;;22.21;40.83;100364.52;90142;1317;74489;-91
2023/06/13 08:14:12;;;;;;;5.10;3.00;;;;;;;22.25;40.68;100361.10;104325;1307;67204;31
2023/06/13 09:12:06;;;;;;;5.40;3.40;;;;;;;22.39;40.92;100335.73;89449;1314;67009;-91
2023/06/13 09:17:28;;;;;;;9.20;3.80;;;;;;;22.42;41.01;100333.40;104337;1314;67140;-90
2023/06/13 10:07:48;;;;;;;9.40;3.90;;;;;;;22.63;41.42;100286.36;104317;1308;83207;-91
2023/06/13 10:49:22;;;;;;;5.60;4.40;;;;;;;22.90;41.10;100255.86;83176;1313;66517;-91
2023/06/13 13:25:28;;;;;;;7.50;4.90;;;;;;;23.53;40.10;100143.61;104082;1312;67192;-90
2023/06/13 14:27:59;;;;;;;5.00;4.00;;;;;;;23.51;39.66;100120.48;85957;1304;559851;-91
2023/06/13 14:41:46;;;;;;;13.90;5.10;;;;;;;23.55;39.75;100124.73;83168;1316;554004;-91
2023/06/13 14:46:51;;;;;;;10.80;3.70;;;;;;;23.55;39.76;100122.33;104329;1311;67738;-91
2023/06/13 14:51:53;;;;;;;12.10;4.10;;;;;;;23.56;39.67;100119.34;104327;1312;68924;-89
2023/06/13 14:54:18;;;;;;;7.80;4.10;;;;;;;23.58;39.65;100115.71;104195;1313;68047;-90
2023/06/13 14:59:25;;;;;;;5.70;3.50;;;;;;;23.61;39.68;100114.02;104361;1314;66818;-90
2023/06/13 15:04:24;;;;;;;6.40;3.70;;;;;;;23.65;39.55;100117.60;104312;1308;68577;-89
2023/06/13 15:06:51;;;;;;;8.10;3.50;;;;;;;23.66;39.46;100118.70;104252;1314;68409;-89
2023/06/13 15:09:17;;;;;;;7.50;5.70;;;;;;;23.66;39.48;100117.63;104076;1313;67198;-89
2023/06/13 15:17:14;;;;;;;7.70;3.30;;;;;;;23.67;39.27;100117.11;99419;1314;558890;-89
2023/06/13 15:19:40;;;;;;;5.30;3.10;;;;;;;23.67;39.21;100116.48;103472;1311;560142;-89
2023/06/13 15:22:06;;;;;;;8.40;3.60;;;;;;;23.66;39.05;100120.37;104019;1316;69093;-89
2023/06/13 15:24:33;;;;;;;7.40;3.50;;;;;;;23.65;39.02;100119.95;104086;1313;69091;-89
2023/06/13 15:26:59;;;;;;;6.40;3.40;;;;;;;23.63;39.06;100121.93;104318;1308;68092;-90
2023/06/13 15:31:58;;;;;;;4.70;3.20;;;;;;;23.63;38.91;100116.86;104247;1313;67828;-89
2023/06/13 15:34:27;;;;;;;8.50;3.30;;;;;;;23.64;38.95;100118.54;104106;1311;67986;-89
2023/06/13 15:36:53;;;;;;;4.70;3.00;;;;;;;23.64;39.04;100122.85;104172;1314;74393;-89
2023/06/13 15:39:19;;;;;;;6.70;3.20;;;;;;;23.64;39.13;100124.65;104258;1311;68524;-89
2023/06/13 15:41:48;;;;;;;6.80;3.00;;;;;;;23.64;38.99;100125.36;104204;1305;67682;-89
2023/06/13 15:44:13;;;;;;;4.70;3.00;;;;;;;23.64;38.90;100125.41;104234;1314;68892;-89
2023/06/13 15:46:40;;;;;;;4.70;2.90;;;;;;;23.65;39.09;100128.59;104069;1314;68163;-89
2023/06/13 15:49:07;;;;;;;8.40;3.30;;;;;;;23.65;39.00;100128.48;104195;1314;68590;-88
2023/06/13 15:51:33;;;;;;;10.30;3.40;;;;;;;23.64;39.02;100128.39;104078;1308;67833;-89
2023/06/13 15:53:59;;;;;;;9.50;3.40;;;;;;;23.64;38.96;100128.19;104088;1313;67912;-88
2023/06/13 15:59:03;;;;;;;11.00;3.30;;;;;;;23.63;38.93;100135.76;104186;1314;68439;-89
2023/06/13 16:01:29;;;;;;;6.20;3.60;;;;;;;23.62;39.04;100140.18;103697;1313;67894;-89
2023/06/13 16:03:55;;;;;;;5.70;3.50;;;;;;;23.63;39.12;100141.92;103076;1314;829131;-89
2023/06/13 16:06:21;;;;;;;9.00;3.50;;;;;;;23.62;39.14;100142.02;103781;1311;68922;-89
2023/06/13 16:08:48;;;;;;;7.20;3.20;;;;;;;23.62;39.17;100140.96;103638;1305;68065;-89
2023/06/13 16:11:14;;;;;;;6.80;3.40;;;;;;;23.61;39.09;100139.23;103703;1313;68464;-89
2023/06/13 16:13:41;;;;;;;6.50;3.80;;;;;;;23.61;39.12;100145.50;103787;1314;67887;-90
2023/06/13 16:16:07;;;;;;;7.40;3.70;;;;;;;23.60;39.28;100149.71;103887;1315;68624;-89
2023/06/13 16:18:35;;;;;;;11.60;3.80;;;;;;;23.61;39.05;100146.48;103858;1311;69317;-89
2023/06/13 16:21:01;;;;;;;5.90;3.20;;;;;;;23.60;39.02;100140.52;103941;1314;68030;-89
2023/06/13 16:23:36;;;;;;;4.30;3.00;;;;;;;23.60;39.15;100142.79;103992;1305;67772;31
2023/06/13 16:26:04;;;;;;;7.50;4.10;;;;;;;23.60;39.20;100144.02;103788;1315;67834;-89
2023/06/13 16:28:38;;;;;;;8.00;3.40;;;;;;;23.59;39.14;100146.35;103799;1312;74751;-89
2023/06/13 16:31:04;;;;;;;4.30;3.40;;;;;;;23.59;39.11;100150.83;104056;1313;68576;-89
2023/06/13 16:33:30;;;;;;;5.40;3.60;;;;;;;23.59;39.10;100150.23;104046;1314;67221;-89
2023/06/13 16:35:57;;;;;;;8.00;3.30;;;;;;;23.58;39.14;100149.05;104181;1311;67898;-90
2023/06/13 16:40:50;;;;;;;5.40;3.60;;;;;;;23.59;39.18;100152.83;104038;1314;67991;-89
2023/06/13 16:43:16;;;;;;;6.60;3.80;;;;;;;23.59;39.33;100151.95;104090;1314;67962;-89
2023/06/13 16:45:42;;;;;;;9.50;3.90;;;;;;;23.59;39.28;100149.70;103614;1320;67276;-88
2023/06/13 16:48:08;;;;;;;10.30;3.40;;;;;;;23.59;39.31;100150.21;103773;1315;67942;-89
2023/06/13 16:50:33;;;;;;;4.70;3.40;;;;;;;23.57;39.36;100148.95;103790;1314;68727;-89
2023/06/13 16:52:59;;;;;;;5.90;3.60;;;;;;;23.57;39.43;100151.93;103774;1318;67848;-89
2023/06/13 16:55:27;;;;;;;6.10;3.70;;;;;;;23.57;39.31;100152.45;103927;1314;67422;-89
2023/06/13 16:57:53;;;;;;;6.20;3.20;;;;;;;23.56;39.22;100150.77;103767;1314;68161;-89
2023/06/13 17:00:19;;;;;;;4.80;3.50;;;;;;;23.55;39.26;100156.11;103809;1313;67705;-88
2023/06/13 17:02:45;;;;;;;8.10;3.90;;;;;;;23.55;39.16;100157.91;103851;1314;67243;-89
2023/06/13 17:07:39;;;;;;;5.20;3.70;;;;;;;23.55;39.35;100158.48;103913;1314;68686;-88
2023/06/13 17:10:08;;;;;;;7.20;3.80;;;;;;;23.55;39.21;100158.74;103850;1314;68580;-89
2023/06/13 17:12:37;;;;;;;4.60;3.70;;;;;;;23.55;39.19;100161.42;103771;1314;68163;-88
2023/06/13 17:15:04;;;;;;;4.60;3.80;;;;;;;23.55;39.38;100165.83;103732;1313;74521;-88
2023/06/13 17:17:30;;;;;;;7.20;3.70;;;;;;;23.55;39.26;100170.05;103855;1305;67776;-88
2023/06/13 17:19:59;;;;;;;7.40;4.20;;;;;;;23.55;39.22;100167.63;103664;1314;67205;-88
2023/06/13 17:22:25;;;;;;;6.50;3.80;;;;;;;23.55;39.22;100169.94;103546;1314;67877;-89
2023/06/13 17:24:51;;;;;;;5.90;3.90;;;;;;;23.56;39.25;100168.48;103841;1312;68046;-89
2023/06/13 17:27:17;;;;;;;6.00;3.70;;;;;;;23.56;39.33;100170.17;103774;1312;67899;-89
2023/06/13 17:29:43;;;;;;;4.60;3.60;;;;;;;23.55;39.45;100167.88;103739;1312;67894;-89
2023/06/13 17:32:16;;;;;;;5.10;3.60;;;;;;;23.55;39.44;100168.55;103592;1308;68448;31
2023/06/13 17:34:43;;;;;;;11.50;4.10;;;;;;;23.56;39.50;100176.34;103744;1317;68474;-89
2023/06/13 17:37:09;;;;;;;4.80;3.50;;;;;;;23.55;39.46;100174.77;103631;1311;68059;-89
2023/06/13 17:39:35;;;;;;;5.50;3.70;;;;;;;23.55;39.35;100177.73;103667;1314;68448;-89
2023/06/13 17:42:03;;;;;;;7.20;3.60;;;;;;;23.55;39.49;100182.83;103547;1316;68439;-89
2023/06/13 17:44:29;;;;;;;6.40;3.70;;;;;;;23.56;39.41;100188.52;103672;1318;67741;-89
2023/06/13 17:49:29;;;;;;;9.30;3.70;;;;;;;23.55;39.47;100198.17;104035;1313;68396;-89
2023/06/13 17:51:55;;;;;;;5.30;3.30;;;;;;;23.56;39.58;100202.02;103737;1316;74175;-88
2023/06/13 17:54:20;;;;;;;4.70;3.50;;;;;;;23.55;39.51;100204.95;103685;1315;67939;-89
2023/06/13 17:56:46;;;;;;;4.00;3.50;;;;;;;23.55;39.66;100211.13;103887;1317;67789;-89
2023/06/13 17:59:12;;;;;;;4.40;3.50;;;;;;;23.55;39.56;100210.25;103739;1305;67898;-88
2023/06/13 18:01:38;;;;;;;4.70;3.70;;;;;;;23.55;39.56;100212.73;103769;1314;68240;-89
2023/06/13 18:04:05;;;;;;;5.80;3.60;;;;;;;23.55;39.60;100213.80;103762;1312;68432;-89
2023/06/13 18:06:31;;;;;;;4.30;3.50;;;;;;;23.54;39.36;100212.21;103971;1311;68658;-89
2023/06/13 18:08:57;;;;;;;7.10;3.50;;;;;;;23.54;39.50;100215.39;104132;1312;67877;-89
2023/06/13 18:11:23;;;;;;;5.40;3.30;;;;;;;23.54;39.54;100215.80;103972;1311;67547;-89
2023/06/13 18:16:25;;;;;;;6.80;3.60;;;;;;;23.53;39.64;100215.56;104007;1311;68538;-89
2023/06/13 18:18:52;;;;;;;5.10;3.50;;;;;;;23.52;39.59;100220.60;103926;1311;68406;-89
2023/06/13 18:21:18;;;;;;;7.60;3.40;;;;;;;23.53;39.65;100231.95;103980;1312;68643;-89
2023/06/13 18:23:43;;;;;;;5.60;3.30;;;;;;;23.52;39.63;100233.70;103833;1312;68596;-88
2023/06/13 18:26:11;;;;;;;5.60;3.20;;;;;;;23.52;39.62;100241.25;103977;1311;68198;-89
2023/06/13 18:28:36;;;;;;;5.50;3.10;;;;;;;23.52;39.55;100248.91;103866;1311;68057;-89
2023/06/13 18:31:04;;;;;;;3.90;3.40;;;;;;;23.51;39.56;100254.21;103918;1312;68037;-89
2023/06/13 18:33:31;;;;;;;4.80;3.40;;;;;;;23.51;39.55;100255.80;103855;1317;68578;-89
2023/06/13 18:35:57;;;;;;;5.10;3.30;;;;;;;23.51;39.68;100254.06;103774;1312;68596;-89
2023/06/13 18:38:23;;;;;;;4.00;3.20;;;;;;;23.50;39.59;100252.42;103870;1312;68473;-89
2023/06/13 18:43:20;;;;;;;5.00;3.10;;;;;;;23.50;39.73;100258.02;104001;1311;67950;-89
2023/06/13 18:45:46;;;;;;;4.10;3.60;;;;;;;23.50;39.63;100260.99;104029;1314;68625;-89
2023/06/13 18:48:11;;;;;;;3.80;3.00;;;;;;;23.49;39.68;100267.43;103945;1312;68010;-89
2023/06/13 18:50:37;;;;;;;4.00;3.30;;;;;;;23.49;39.66;100272.20;103885;1314;67822;-89
2023/06/13 18:53:04;;;;;;;3.40;2.90;;;;;;;23.49;39.63;100270.66;103820;1314;68083;-89
2023/06/13 18:55:31;;;;;;;5.80;3.10;;;;;;;23.49;39.82;100276.73;103846;1313;68957;-89
2023/06/13 18:57:57;;;;;;;4.90;3.10;;;;;;;23.48;39.70;100276.79;103708;1314;67608;-89
2023/06/13 19:00:22;;;;;;;6.60;3.10;;;;;;;23.48;39.78;100281.31;103691;1315;68001;-89
2023/06/13 19:02:48;;;;;;;4.10;3.00;;;;;;;23.48;39.79;100284.50;103760;1320;68412;-89
2023/06/13 19:05:15;;;;;;;3.50;3.10;;;;;;;23.47;39.90;100285.02;103783;1314;68671;-89
2023/06/13 19:07:42;;;;;;;4.60;3.30;;;;;;;23.47;39.74;100291.91;103914;1314;68010;-90
2023/06/13 19:10:07;;;;;;;5.20;3.30;;;;;;;23.47;39.78;100289.75;103776;1314;67955;-89
2023/06/13 19:12:34;;;;;;;7.60;3.60;;;;;;;23.47;39.85;100293.55;103755;1314;67787;-89
2023/06/13 19:15:01;;;;;;;10.80;3.10;;;;;;;23.47;39.87;100293.66;103982;1314;69083;-89
2023/06/13 19:17:30;;;;;;;3.40;3.10;;;;;;;23.46;39.98;100299.42;103739;1316;68542;-89
2023/06/13 19:19:57;;;;;;;3.90;3.40;;;;;;;23.46;39.85;100300.97;103804;1313;68458;-89
2023/06/13 19:22:23;;;;;;;5.10;3.40;;;;;;;23.46;39.78;100304.60;103852;1315;67117;-89
2023/06/13 19:24:49;;;;;;;3.80;3.00;;;;;;;23.46;39.70;100301.73;103727;1315;68524;-89
2023/06/13 19:27:14;;;;;;;4.20;3.20;;;;;;;23.46;39.77;100303.33;103822;1313;67941;-89
2023/06/13 19:29:40;;;;;;;5.10;2.80;;;;;;;23.46;39.76;100307.39;103815;1314;68138;-89
2023/06/13 19:32:06;;;;;;;3.60;3.00;;;;;;;23.45;39.87;100308.06;103861;1312;68740;-89
2023/06/13 19:34:41;;;;;;;4.50;3.20;;;;;;;23.46;39.95;100312.73;103695;1317;68099;-92
2023/06/13 19:37:07;;;;;;;4.70;3.10;;;;;;;23.44;39.96;100308.38;103850;1313;74199;-90
2023/06/13 19:39:33;;;;;;;4.10;3.10;;;;;;;23.45;40.05;100310.83;103821;1314;68059;-89
2023/06/13 19:41:59;;;;;;;4.50;3.10;;;;;;;23.44;39.78;100307.55;104076;1314;67901;-89
2023/06/13 19:44:27;;;;;;;3.40;3.00;;;;;;;23.45;39.86;100310.67;103743;1317;67971;-89
2023/06/13 19:46:53;;;;;;;5.30;3.10;;;;;;;23.44;39.99;100310.28;103792;1314;68749;-89
2023/06/13 19:49:19;;;;;;;4.60;3.20;;;;;;;23.44;39.99;100309.98;103773;1313;68074;-89
2023/06/13 19:51:45;;;;;;;3.80;3.30;;;;;;;23.43;39.95;100313.79;103861;1315;67966;-89
2023/06/13 19:54:11;;;;;;;5.50;3.20;;;;;;;23.43;39.94;100309.98;103838;1318;68227;-89
2023/06/13 19:56:37;;;;;;;6.30;3.50;;;;;;;23.43;39.91;100312.23;103723;1315;68027;-89
2023/06/13 19:59:03;;;;;;;3.70;3.10;;;;;;;23.43;39.98;100314.30;103874;1305;67302;-89
2023/06/13 20:04:02;;;;;;;6.20;3.30;;;;;;;23.42;40.05;100318.05;104055;1315;68662;-89
2023/06/13 20:06:29;;;;;;;5.00;3.10;;;;;;;23.42;40.11;100320.37;103834;1312;68571;-88
2023/06/13 20:08:55;;;;;;;4.60;3.10;;;;;;;23.41;40.08;100320.21;103856;1312;68462;-89
2023/06/13 20:11:22;;;;;;;4.10;3.00;;;;;;;23.42;40.25;100323.19;103872;1312;67880;-89
2023/06/13 20:13:47;;;;;;;5.10;3.30;;;;;;;23.42;40.20;100321.08;103804;1312;68099;-89
2023/06/13 20:16:13;;;;;;;3.50;3.00;;;;;;;23.40;40.04;100319.10;103819;1317;68371;-88
2023/06/13 20:18:39;;;;;;;4.30;3.20;;;;;;;23.40;39.97;100324.59;103855;1312;68238;-88
2023/06/13 20:21:05;;;;;;;4.60;3.30;;;;;;;23.40;40.00;100328.28;103792;1312;67804;-88
2023/06/13 20:23:32;;;;;;;5.20;3.10;;;;;;;23.40;40.03;100329.27;104070;1314;68601;-88
2023/06/13 20:25:58;;;;;;;3.30;2.90;;;;;;;23.40;39.96;100333.16;103886;1314;68929;-88
2023/06/13 20:31:07;;;;;;;3.90;3.20;;;;;;;23.40;40.22;100333.58;103818;1314;75465;-88
2023/06/13 20:33:33;;;;;;;4.30;2.90;;;;;;;23.39;40.20;100336.20;103719;1314;82750;-88
2023/06/13 20:36:00;;;;;;;5.20;3.00;;;;;;;23.39;40.04;100342.27;103777;1312;68500;-88
2023/06/13 20:38:27;;;;;;;3.40;3.00;;;;;;;23.39;40.10;100344.48;103857;1313;69013;-88
2023/06/13 20:40:53;;;;;;;4.60;3.10;;;;;;;23.39;40.10;100346.89;103778;1315;68322;-88
2023/06/13 20:45:57;;;;;;;3.30;3.00;;;;;;;23.38;40.05;100347.00;103886;1314;82460;-88
2023/06/13 20:48:24;;;;;;;4.80;3.90;;;;;;;23.38;40.21;100348.90;103845;1314;68481;-88
2023/06/13 20:50:52;;;;;;;4.50;3.50;;;;;;;23.38;40.14;100349.47;103824;1314;67934;-88
2023/06/13 20:53:19;;;;;;;4.60;3.60;;;;;;;23.37;40.16;100352.10;104030;1309;67158;-89
2023/06/13 20:55:46;;;;;;;3.40;3.10;;;;;;;23.37;40.11;100355.75;103804;1311;74488;-88
2023/06/13 20:58:12;;;;;;;4.00;3.60;;;;;;;23.37;40.16;100354.72;103636;1317;74209;-88
2023/06/13 21:00:39;;;;;;;5.70;3.30;;;;;;;23.37;40.10;100354.56;104005;1317;67341;-88
2023/06/13 21:03:05;;;;;;;4.00;3.10;;;;;;;23.37;40.23;100350.87;103783;1318;67782;-88
2023/06/13 21:05:31;;;;;;;3.60;3.30;;;;;;;23.37;40.08;100353.73;103987;1312;67977;-89
2023/06/13 21:07:57;;;;;;;4.00;3.50;;;;;;;23.36;40.12;100355.05;103830;1312;69212;-88
2023/06/13 21:10:28;;;;;;;3.90;3.40;;;;;;;23.36;40.11;100355.41;103971;1314;68044;-93
2023/06/13 21:12:54;;;;;;;;;;;;;;;23.35;40.16;100355.52;103873;1312;67958;-89
2023/06/13 21:15:22;;;;;;;5.80;3.60;;;;;;;23.32;40.06;100354.77;103921;1318;69191;-88
2023/06/13 21:17:50;;;;;;;4.20;2.90;;;;;;;23.33;40.13;100355.81;104017;1312;67191;-88
2023/06/13 21:20:19;;;;;;;4.20;3.60;;;;;;;23.33;40.22;100357.52;103767;1317;67184;-88
2023/06/13 21:22:45;;;;;;;4.30;3.50;;;;;;;23.33;40.31;100365.86;103940;1319;84041;-88
2023/06/13 21:25:29;;;;;;;4.70;3.40;;;;;;;23.33;40.10;100362.79;103772;1312;68486;-92
2023/06/13 21:27:56;;;;;;;3.80;3.40;;;;;;;23.32;40.18;100358.27;103731;1315;68012;-88
2023/06/13 21:30:21;;;;;;;4.30;3.70;;;;;;;23.32;40.11;100357.42;103693;1314;68006;-89
2023/06/13 21:32:47;;;;;;;4.60;3.70;;;;;;;23.33;40.21;100362.27;103706;1320;68642;-89
2023/06/13 21:35:14;;;;;;;4.10;3.70;;;;;;;23.32;40.06;100357.86;103636;1314;68090;-89
2023/06/13 21:37:40;;;;;;;5.90;3.60;;;;;;;23.32;40.15;100361.55;103816;1314;67865;-88
2023/06/13 21:42:48;;;;;;;3.60;3.10;;;;;;;23.32;40.33;100359.09;103937;1314;68606;-88
2023/06/13 21:45:14;;;;;;;3.60;3.30;;;;;;;23.32;40.21;100359.70;103772;1317;68295;-89
2023/06/13 21:47:40;;;;;;;4.20;3.60;;;;;;;23.32;40.30;100359.56;103821;1318;68609;-88
2023/06/13 21:50:07;;;;;;;4.40;3.60;;;;;;;23.32;40.24;100353.35;103847;1317;67806;-89
2023/06/13 21:52:33;;;;;;;7.20;3.10;;;;;;;23.32;40.20;100351.95;103799;1314;68937;-89
2023/06/13 21:55:06;;;;;;;3.60;3.20;;;;;;;23.32;40.46;100349.04;103892;1317;68514;-89
2023/06/13 21:57:37;;;;;;;3.70;3.30;;;;;;;23.32;40.16;100350.52;103993;1314;74754;-88
2023/06/13 22:00:05;;;;;;;4.20;3.50;;;;;;;23.31;40.28;100346.73;103916;1314;68118;-89
2023/06/13 22:02:31;;;;;;;4.20;3.20;;;;;;;23.31;40.21;100348.32;103772;1313;69334;-88
2023/06/13 22:04:57;;;;;;;3.90;3.60;;;;;;;23.31;40.37;100347.25;103773;1313;68568;-88
2023/06/13 22:07:28;;;;;;;4.00;3.60;;;;;;;23.32;40.30;100351.86;103818;1313;67949;-88
2023/06/13 22:09:55;;;;;;;4.00;3.40;;;;;;;23.31;40.22;100348.12;103971;1314;68458;-88
2023/06/13 22:12:28;;;;;;;4.00;3.60;;;;;;;23.31;40.37;100347.83;103722;1313;74174;-88
2023/06/13 22:14:54;;;;;;;4.30;3.60;;;;;;;23.30;40.19;100348.04;103826;1317;67793;-89
2023/06/13 22:17:27;;;;;;;3.80;3.40;;;;;;;23.30;40.29;100350.14;103703;1314;67861;-88
2023/06/13 22:19:52;;;;;;;4.00;3.40;;;;;;;23.30;40.14;100356.91;103711;1314;68653;-89
2023/06/13 22:22:19;;;;;;;3.60;3.30;;;;;;;23.30;40.34;100359.48;103604;1305;69280;-88
2023/06/13 22:24:46;;;;;;;4.40;3.60;;;;;;;23.31;40.35;100361.21;103649;1314;67979;-89
2023/06/13 22:27:12;;;;;;;3.70;3.30;;;;;;;23.30;40.26;100363.39;103759;1314;69533;-88
2023/06/13 22:29:38;;;;;;;3.90;3.30;;;;;;;23.30;40.26;100366.42;103720;1313;68151;-89
2023/06/13 22:32:05;;;;;;;9.00;3.60;;;;;;;23.30;40.34;100364.66;103822;1314;68693;-89
2023/06/13 22:34:31;;;;;;;3.40;3.10;;;;;;;23.29;40.26;100364.67;103899;1314;68569;-89
2023/06/13 22:39:40;;;;;;;5.40;3.30;;;;;;;23.29;40.29;100362.83;103925;1314;73203;-88
2023/06/13 22:42:07;;;;;;;4.50;3.30;;;;;;;23.28;40.31;100365.71;103871;1311;67979;-88
2023/06/13 22:44:33;;;;;;;4.40;3.20;;;;;;;23.28;40.35;100361.90;103803;1312;68398;-88
2023/06/13 22:47:00;;;;;;;3.80;3.40;;;;;;;23.28;40.40;100362.98;103799;1313;68756;-88
2023/06/13 22:49:28;;;;;;;4.50;3.30;;;;;;;23.28;40.29;100355.09;103719;1314;68492;-89
2023/06/13 22:54:31;;;;;;;4.60;3.00;;;;;;;23.27;40.25;100355.56;103729;1315;68393;-88
2023/06/13 22:56:58;;;;;;;3.40;3.10;;;;;;;23.26;40.21;100359.31;103674;1316;67309;-88
2023/06/13 22:59:24;;;;;;;3.70;2.80;;;;;;;23.26;40.18;100358.48;103643;1315;68128;-88
2023/06/13 23:01:50;;;;;;;3.60;2.90;;;;;;;23.26;40.39;100358.02;103818;1317;68550;-88
2023/06/13 23:04:16;;;;;;;3.40;3.10;;;;;;;23.26;40.20;100359.00;103700;1306;67841;-88
2023/06/13 23:06:42;;;;;;;3.50;2.90;;;;;;;23.26;40.33;100355.16;103414;1317;67222;-88
2023/06/13 23:09:08;;;;;;;4.50;3.40;;;;;;;23.25;40.27;100352.33;103695;1314;68012;-89
2023/06/13 23:11:35;;;;;;;3.80;3.10;;;;;;;23.25;40.22;100349.20;103806;1314;67258;-88
2023/06/13 23:14:02;;;;;;;7.00;2.90;;;;;;;23.25;40.43;100348.64;103714;1314;68407;-88
2023/06/13 23:16:29;;;;;;;4.20;3.00;;;;;;;23.25;40.34;100352.81;103815;1308;68112;-88
2023/06/13 23:19:02;;;;;;;3.90;2.80;;;;;;;23.25;40.39;100350.55;103615;1305;68670;31
2023/06/13 23:21:28;;;;;;;4.30;3.00;;;;;;;23.25;40.46;100356.50;103534;1317;68606;-88
2023/06/13 23:23:54;;;;;;;2.90;2.50;;;;;;;23.24;40.29;100359.08;103640;1316;68136;-88
2023/06/13 23:26:22;;;;;;;3.00;2.70;;;;;;;23.24;40.34;100352.45;103741;1311;67714;-88
2023/06/13 23:28:48;;;;;;;3.40;3.00;;;;;;;23.24;40.42;100354.86;103812;1314;67966;-89
2023/06/13 23:31:16;;;;;;;3.00;2.80;;;;;;;23.24;40.29;100353.44;103843;1314;68477;-89
2023/06/13 23:36:24;;;;;;;3.60;2.60;;;;;;;23.24;40.24;100346.50;103866;1314;73972;-89
2023/06/13 23:38:52;;;;;;;3.40;2.80;;;;;;;23.23;40.20;100345.28;103699;1313;67495;-89
2023/06/13 23:41:18;;;;;;;4.00;2.60;;;;;;;23.23;40.25;100344.56;103911;1314;68508;-89
2023/06/13 23:43:44;;;;;;;2.90;2.70;;;;;;;23.23;40.32;100344.88;103980;1314;67849;-89
2023/06/13 23:46:11;;;;;;;2.80;2.40;;;;;;;23.23;40.34;100343.13;103666;1311;68127;-88
2023/06/13 23:51:12;;;;;;;2.90;2.70;;;;;;;23.23;40.22;100342.98;104028;1317;74375;-88
2023/06/13 23:53:39;;;;;;;4.60;2.50;;;;;;;23.22;40.21;100341.39;103864;1312;72549;-89
2023/06/13 23:56:07;;;;;;;3.50;2.30;;;;;;;23.22;40.38;100338.91;103712;1312;67257;-89
2023/06/13 23:58:33;;;;;;;2.80;2.30;;;;;;;23.22;40.26;100337.17;103692;1314;67829;-89
